Weather History for Monarch Pass, CO

Change the Weather History Date:

Saturday, May 25, 2013

  Actual Average (KGUC) Record (KGUC)
Temperature  
Mean Temperature 48 °F -  
Max Temperature 59 °F 66 °F 75 °F (2006)
Min Temperature 37 °F 33 °F 23 °F (2002)
Degree Days  
Heating Degree Days 17    
Moisture  
Dew Point 11 °F    
Average Humidity 24    
Maximum Humidity 36    
Minimum Humidity 14    
Precipitation  
Precipitation 0.00 in - - ()
Sea Level Pressure  
Sea Level Pressure 30.53 in    
Wind  
Wind Speed 19 mph (WSW)    
Max Wind Speed 29 mph    
Max Gust Speed 40 mph    
Averages and records for this station are not official NWS values.
T = Trace of Precipitation, MM = Missing Value Source: NWS Daily Summary

Daily Weather History Graph

Daily Weather History Graph

Search for Another Location

Airport:

Trip Planner

Search our weather history database for the weather conditions in past years. The results will help you decide how hot, cold, wet, or windy it might be!

Date:

Astronomy

May. 25, 2013 Rise Set
Actual Time 5:46 AM MDT 8:18 PM MDT
Civil Twilight 5:15 AM MDT 8:49 PM MDT
Nautical Twilight 4:37 AM MDT 9:27 PM MDT
Astronomical Twilight 3:55 AM MDT 10:10 PM MDT
Moon 9:09 PM MDT (5/25) 6:15 AM MDT (5/25)
Length of Visible Light 15h 33m
Length of Day
14h 32m
Waxing Gibbous, 99% of the Moon is Illuminated
May 25
Waxing Gibbous
May 31
Last Quarter
Jun 8
New
Jun 16
First Quarter
Jun 23
Full

Hourly Weather History & Observations

Time (MDT) Temp. Windchill Dew Point Humidity Pressure Visibility Wind Dir Wind Speed Gust Speed Precip Events Conditions
12:13 AM 42.8 °F 34.5 °F 10.4 °F 27% 30.54 in - West 18.4 mph - N/A   Clear
12:33 AM 41.0 °F 33.1 °F 10.4 °F 29% 30.55 in - WSW 15.0 mph - N/A   Clear
12:53 AM 41.0 °F 33.9 °F 10.4 °F 29% 30.55 in - SW 12.7 mph - N/A   Clear
1:13 AM 41.0 °F 34.3 °F 10.4 °F 29% 30.55 in - SW 11.5 mph - N/A   Clear
1:33 AM 41.0 °F 34.3 °F 10.4 °F 29% 30.55 in - SW 11.5 mph - N/A   Clear
1:53 AM 41.0 °F 33.1 °F 10.4 °F 29% 30.53 in - SW 15.0 mph - N/A   Clear
2:13 AM 41.0 °F 33.1 °F 10.4 °F 29% 30.53 in - SW 15.0 mph - N/A   Clear
2:33 AM 39.2 °F 30.8 °F 10.4 °F 31% 30.53 in - SW 15.0 mph - N/A   Clear
2:53 AM 39.2 °F 29.6 °F 12.2 °F 33% 30.52 in - SW 19.6 mph - N/A   Clear
3:13 AM 41.0 °F 31.1 °F 12.2 °F 31% 30.51 in - SW 23.0 mph - N/A   Clear
3:33 AM 41.0 °F 30.7 °F 10.4 °F 29% 30.51 in - SW 25.3 mph - N/A   Clear
3:53 AM 41.0 °F 31.1 °F 10.4 °F 29% 30.51 in - SW 23.0 mph - N/A   Clear
4:13 AM 41.0 °F 30.7 °F 10.4 °F 29% 30.51 in - WSW 25.3 mph - N/A   Clear
4:33 AM 41.0 °F 30.9 °F 10.4 °F 29% 30.51 in - WSW 24.2 mph 29.9 mph N/A   Clear
4:53 AM 39.2 °F 29.3 °F 12.2 °F 33% 30.51 in - SW 20.7 mph - N/A   Clear
5:13 AM 39.2 °F 29.3 °F 12.2 °F 33% 30.51 in - WSW 20.7 mph - N/A   Clear
5:33 AM 37.4 °F 26.6 °F 12.2 °F 36% 30.51 in - SW 21.9 mph - N/A   Clear
5:53 AM 39.2 °F 28.5 °F 12.2 °F 33% 30.52 in - SW 24.2 mph - N/A   Clear
6:13 AM 39.2 °F 28.3 °F 12.2 °F 33% 30.52 in - SW 25.3 mph - N/A   Clear
6:33 AM 39.2 °F 27.8 °F 12.2 °F 33% 30.52 in - SW 27.6 mph - N/A   Clear
6:53 AM 41.0 °F 30.0 °F 10.4 °F 29% 30.53 in - SW 28.8 mph - N/A   Clear
7:13 AM 41.0 °F 30.9 °F 10.4 °F 29% 30.53 in - SW 24.2 mph 28.8 mph N/A   Clear
7:33 AM 41.0 °F 30.9 °F 10.4 °F 29% 30.53 in - SW 24.2 mph 31.1 mph N/A   Clear
7:53 AM 41.0 °F 30.9 °F 12.2 °F 31% 30.52 in - SW 24.2 mph 28.8 mph N/A   Clear
8:13 AM 41.0 °F 31.1 °F 12.2 °F 31% 30.52 in - SW 23.0 mph 28.8 mph N/A   Clear
8:33 AM 42.8 °F 33.3 °F 10.4 °F 27% 30.53 in - WSW 24.2 mph - N/A   Clear
8:53 AM 42.8 °F 33.3 °F 8.6 °F 25% 30.53 in - WSW 24.2 mph 31.1 mph N/A   Clear
9:13 AM 44.6 °F 36.1 °F 8.6 °F 23% 30.54 in - WSW 21.9 mph 27.6 mph N/A   Clear
9:33 AM 44.6 °F 37.4 °F 8.6 °F 23% 30.54 in - West 16.1 mph 24.2 mph N/A   Clear
9:53 AM 46.4 °F 38.7 °F 10.4 °F 23% 30.54 in - WSW 20.7 mph 25.3 mph N/A   Clear
10:13 AM 46.4 °F 38.5 °F 10.4 °F 23% 30.54 in - WSW 21.9 mph 27.6 mph N/A   Clear
10:33 AM 48.2 °F - 12.2 °F 24% 30.55 in - SW 13.8 mph - N/A   Clear
10:53 AM 50.0 °F - 12.2 °F 22% 30.55 in - SSW 20.7 mph 25.3 mph N/A   Clear
11:13 AM 50.0 °F - 12.2 °F 22% 30.55 in - SSW 13.8 mph 26.5 mph N/A   Clear
11:33 AM 51.8 °F - 12.2 °F 21% 30.55 in - SW 11.5 mph 25.3 mph N/A   Clear
11:53 AM 51.8 °F - 10.4 °F 19% 30.55 in - SW 20.7 mph 29.9 mph N/A   Clear
12:13 PM 53.6 °F - 8.6 °F 16% 30.55 in - SW 19.6 mph 28.8 mph N/A   Clear
12:33 PM 53.6 °F - 8.6 °F 16% 30.54 in - SW 26.5 mph 40.3 mph N/A   Clear
12:53 PM 53.6 °F - 10.4 °F 18% 30.53 in - South 16.1 mph 33.4 mph N/A   Clear
1:13 PM 55.4 °F - 10.4 °F 17% 30.53 in - SW 24.2 mph 29.9 mph N/A   Clear
1:33 PM 53.6 °F - 5.0 °F 14% 30.53 in - WSW 26.5 mph 33.4 mph N/A   Clear
1:53 PM 53.6 °F - 10.4 °F 18% 30.53 in - West 17.3 mph 27.6 mph N/A   Clear
2:13 PM 53.6 °F - 8.6 °F 16% 30.53 in - South 9.2 mph 28.8 mph N/A   Clear
2:33 PM 55.4 °F - 10.4 °F 17% 30.53 in - West 18.4 mph 26.5 mph N/A   Clear
2:53 PM 55.4 °F - 12.2 °F 18% 30.53 in - West 27.6 mph 35.7 mph N/A   Scattered Clouds
3:13 PM 55.4 °F - 8.6 °F 15% 30.53 in - SSW 18.4 mph 32.2 mph N/A   Scattered Clouds
3:33 PM 55.4 °F - 10.4 °F 17% 30.53 in - WSW 18.4 mph 39.1 mph N/A   Scattered Clouds
3:53 PM 55.4 °F - 10.4 °F 17% 30.53 in - WSW 28.8 mph 36.8 mph N/A   Clear
4:13 PM 59.0 °F - 10.4 °F 15% 30.53 in - SW 16.1 mph 31.1 mph N/A   Scattered Clouds
4:33 PM 57.2 °F - 10.4 °F 16% 30.52 in - WSW 17.3 mph 24.2 mph N/A   Scattered Clouds
4:53 PM 57.2 °F - 8.6 °F 14% 30.51 in - West 21.9 mph 35.7 mph N/A   Scattered Clouds
5:13 PM 53.6 °F - 8.6 °F 16% 30.51 in - WSW 11.5 mph 24.2 mph N/A   Mostly Cloudy
5:33 PM 55.4 °F - 10.4 °F 17% 30.51 in - West 24.2 mph 27.6 mph N/A   Mostly Cloudy
5:53 PM 53.6 °F - 8.6 °F 16% 30.50 in - WSW 13.8 mph - N/A   Mostly Cloudy
6:13 PM 53.6 °F - 10.4 °F 18% 30.50 in - WSW 24.2 mph - N/A   Overcast
6:33 PM 53.6 °F - 10.4 °F 18% 30.50 in - WSW 18.4 mph 26.5 mph N/A   Overcast
6:53 PM 53.6 °F - 12.2 °F 19% 30.50 in - West 23.0 mph 29.9 mph N/A   Mostly Cloudy
7:13 PM 53.6 °F - 12.2 °F 19% 30.50 in - WSW 18.4 mph 27.6 mph N/A   Overcast
7:33 PM 50.0 °F - 12.2 °F 22% 30.50 in - West 18.4 mph 27.6 mph N/A   Clear
7:53 PM 50.0 °F - 14.0 °F 24% 30.51 in - West 20.7 mph - N/A   Clear
8:13 PM 48.2 °F - 14.0 °F 25% 30.51 in - West 20.7 mph - N/A   Clear
8:33 PM 46.4 °F 38.5 °F 14.0 °F 27% 30.51 in - West 21.9 mph - N/A   Clear
8:53 PM 46.4 °F 38.3 °F 14.0 °F 27% 30.51 in - West 23.0 mph - N/A   Clear
9:13 PM 44.6 °F 36.1 °F 14.0 °F 29% 30.52 in - West 21.9 mph - N/A   Clear
9:33 PM 44.6 °F 37.2 °F 14.0 °F 29% 30.53 in - WSW 17.3 mph - N/A   Clear
9:53 PM 44.6 °F 37.8 °F 14.0 °F 29% 30.53 in - WSW 15.0 mph - N/A   Clear
10:13 PM 44.6 °F 36.4 °F 12.2 °F 27% 30.53 in - West 20.7 mph 24.2 mph N/A   Clear
10:33 PM 42.8 °F 34.8 °F 12.2 °F 29% 30.53 in - West 17.3 mph - N/A   Clear
10:53 PM 42.8 °F 34.8 °F 12.2 °F 29% 30.53 in - West 17.3 mph - N/A   Clear
11:13 PM 44.6 °F 36.9 °F 12.2 °F 27% 30.53 in - WNW 18.4 mph - N/A   Clear
11:33 PM 42.8 °F 35.8 °F 12.2 °F 29% 30.53 in - West 13.8 mph - N/A   Clear
11:53 PM 42.8 °F 35.4 °F 12.2 °F 29% 30.53 in - West 15.0 mph - N/A   Clear